createdAt,value
2022-10-19T00:15:24.964Z,8.19
2022-10-19T00:35:24.998Z,7.97
2022-10-19T00:55:24.952Z,7.89
2022-10-19T01:35:24.968Z,7.53
2022-10-19T02:15:24.968Z,7.2
2022-10-19T03:35:24.976Z,6.91
2022-10-19T04:15:24.994Z,7.21
2022-10-19T04:35:25.013Z,7.62
2022-10-19T04:55:24.996Z,7.83
2022-10-19T06:15:25.009Z,7.42
2022-10-19T06:35:24.994Z,7.36
2022-10-19T06:55:24.997Z,7.44
2022-10-19T07:15:25.038Z,7.94
2022-10-19T07:35:25.007Z,8.47
2022-10-19T07:55:25.016Z,9.04
2022-10-19T08:15:24.996Z,9.93
2022-10-19T08:35:24.993Z,11.23
2022-10-19T08:55:25.000Z,11.98
2022-10-19T09:15:25.019Z,11.93
2022-10-19T09:35:24.992Z,12.25
2022-10-19T09:55:24.981Z,12.62
2022-10-19T10:15:24.988Z,13.02
2022-10-19T10:55:24.967Z,13.82
2022-10-19T11:15:25.029Z,13.84
2022-10-19T11:35:24.972Z,14.22
2022-10-19T11:55:24.959Z,14.56
2022-10-19T12:15:24.950Z,14.92
2022-10-19T12:55:25.025Z,15.13
2022-10-19T13:15:24.943Z,15.16
2022-10-19T13:55:24.956Z,15.18
2022-10-19T14:15:24.932Z,15.16
2022-10-19T14:35:24.914Z,14.89
2022-10-19T14:55:24.934Z,14.88
2022-10-19T15:15:24.902Z,14.58
2022-10-19T15:35:24.882Z,14.3
2022-10-19T16:15:24.891Z,13.67
2022-10-19T16:35:24.881Z,13.24
2022-10-19T16:55:24.867Z,12.83
2022-10-19T17:15:41.828Z,12.45
2022-10-19T17:55:24.871Z,11.89
2022-10-19T18:15:24.865Z,11.77
2022-10-19T19:15:24.860Z,11.08
2022-10-19T19:35:24.847Z,10.84
2022-10-19T19:55:24.850Z,10.5
2022-10-19T20:15:24.906Z,10.18
2022-10-19T20:35:24.839Z,9.98
2022-10-19T20:55:24.840Z,9.82
2022-10-19T21:15:24.852Z,9.6
2022-10-19T21:35:24.847Z,9.43
2022-10-19T21:55:24.832Z,9.27
2022-10-19T22:15:24.842Z,9.21
2022-10-19T22:35:24.855Z,9.19
2022-10-19T22:55:24.851Z,9.03
2022-10-19T23:15:24.858Z,8.89
2022-10-19T23:55:24.834Z,8.75
